sensor_id;sensor_type;location;lat;lon;timestamp;temperature;humidity
3344;DHT22;1685;53.104;8.228;2023-03-25T00:01:54;9.30;99.90
3344;DHT22;1685;53.104;8.228;2023-03-25T00:06:53;9.30;99.90
3344;DHT22;1685;53.104;8.228;2023-03-25T00:11:48;9.30;99.90
3344;DHT22;1685;53.104;8.228;2023-03-25T00:19:14;9.30;99.90
3344;DHT22;1685;53.104;8.228;2023-03-25T00:36:29;9.50;99.90
3344;DHT22;1685;53.104;8.228;2023-03-25T00:41:24;9.60;99.90
3344;DHT22;1685;53.104;8.228;2023-03-25T00:43:52;9.60;99.90
3344;DHT22;1685;53.104;8.228;2023-03-25T00:53:45;9.60;99.90
3344;DHT22;1685;53.104;8.228;2023-03-25T01:01:08;9.60;99.90
3344;DHT22;1685;53.104;8.228;2023-03-25T01:06:08;9.60;99.90
3344;DHT22;1685;53.104;8.228;2023-03-25T01:11:06;9.60;99.90
3344;DHT22;1685;53.104;8.228;2023-03-25T01:28:21;9.60;99.90
3344;DHT22;1685;53.104;8.228;2023-03-25T01:35:43;9.60;99.90
3344;DHT22;1685;53.104;8.228;2023-03-25T01:43:08;9.50;99.90
3344;DHT22;1685;53.104;8.228;2023-03-25T01:45:39;9.50;99.90
3344;DHT22;1685;53.104;8.228;2023-03-25T01:48:08;9.50;99.90
3344;DHT22;1685;53.104;8.228;2023-03-25T01:50:37;9.50;99.90
3344;DHT22;1685;53.104;8.228;2023-03-25T01:55:34;9.50;99.90
3344;DHT22;1685;53.104;8.228;2023-03-25T01:58:04;9.60;99.90
3344;DHT22;1685;53.104;8.228;2023-03-25T02:00:35;9.50;99.90
3344;DHT22;1685;53.104;8.228;2023-03-25T02:03:04;9.50;99.90
3344;DHT22;1685;53.104;8.228;2023-03-25T02:05:37;9.50;99.90
3344;DHT22;1685;53.104;8.228;2023-03-25T02:08:06;9.50;99.90
3344;DHT22;1685;53.104;8.228;2023-03-25T02:10:35;9.50;99.90
3344;DHT22;1685;53.104;8.228;2023-03-25T02:13:02;9.50;99.90
3344;DHT22;1685;53.104;8.228;2023-03-25T02:15:43;9.50;99.90
3344;DHT22;1685;53.104;8.228;2023-03-25T02:18:28;9.40;99.90
3344;DHT22;1685;53.104;8.228;2023-03-25T02:24:42;9.30;99.90
3344;DHT22;1685;53.104;8.228;2023-03-25T02:27:21;9.40;99.90
3344;DHT22;1685;53.104;8.228;2023-03-25T02:33:32;9.50;99.90
3344;DHT22;1685;53.104;8.228;2023-03-25T02:36:21;9.40;99.90
3344;DHT22;1685;53.104;8.228;2023-03-25T02:38:59;9.40;99.90
3344;DHT22;1685;53.104;8.228;2023-03-25T02:41:32;9.30;99.90
3344;DHT22;1685;53.104;8.228;2023-03-25T02:44:09;9.30;99.90
3344;DHT22;1685;53.104;8.228;2023-03-25T02:46:38;9.30;99.90
3344;DHT22;1685;53.104;8.228;2023-03-25T02:49:10;9.20;99.90
3344;DHT22;1685;53.104;8.228;2023-03-25T02:51:43;9.20;99.90
3344;DHT22;1685;53.104;8.228;2023-03-25T02:54:13;9.20;99.90
3344;DHT22;1685;53.104;8.228;2023-03-25T02:56:42;9.20;99.90
3344;DHT22;1685;53.104;8.228;2023-03-25T02:59:11;9.20;99.90
3344;DHT22;1685;53.104;8.228;2023-03-25T03:01:40;9.20;99.90
3344;DHT22;1685;53.104;8.228;2023-03-25T03:06:37;9.20;99.90
3344;DHT22;1685;53.104;8.228;2023-03-25T03:09:18;9.10;99.90
3344;DHT22;1685;53.104;8.228;2023-03-25T03:11:56;9.20;99.90
3344;DHT22;1685;53.104;8.228;2023-03-25T03:14:55;9.10;99.90
3344;DHT22;1685;53.104;8.228;2023-03-25T03:17:30;9.10;99.90
3344;DHT22;1685;53.104;8.228;2023-03-25T03:20:05;9.00;99.90
3344;DHT22;1685;53.104;8.228;2023-03-25T03:22:38;8.90;99.90
3344;DHT22;1685;53.104;8.228;2023-03-25T03:25:15;8.90;99.90
3344;DHT22;1685;53.104;8.228;2023-03-25T03:27:47;8.80;99.90
3344;DHT22;1685;53.104;8.228;2023-03-25T03:30:18;8.80;99.90
3344;DHT22;1685;53.104;8.228;2023-03-25T03:32:49;8.80;99.90
3344;DHT22;1685;53.104;8.228;2023-03-25T03:35:22;8.70;99.90
3344;DHT22;1685;53.104;8.228;2023-03-25T03:37:53;8.70;99.90
3344;DHT22;1685;53.104;8.228;2023-03-25T03:40:24;8.70;99.90
3344;DHT22;1685;53.104;8.228;2023-03-25T03:42:55;8.70;99.90
3344;DHT22;1685;53.104;8.228;2023-03-25T03:45:27;8.70;99.90
3344;DHT22;1685;53.104;8.228;2023-03-25T03:47:57;8.70;99.90
3344;DHT22;1685;53.104;8.228;2023-03-25T03:50:28;8.60;99.90
3344;DHT22;1685;53.104;8.228;2023-03-25T03:53:00;8.60;99.90
3344;DHT22;1685;53.104;8.228;2023-03-25T03:55:34;8.50;99.90
3344;DHT22;1685;53.104;8.228;2023-03-25T03:58:07;8.40;99.90
3344;DHT22;1685;53.104;8.228;2023-03-25T04:00:37;8.30;99.90
3344;DHT22;1685;53.104;8.228;2023-03-25T04:03:08;8.30;99.90
3344;DHT22;1685;53.104;8.228;2023-03-25T04:05:40;8.30;99.90
3344;DHT22;1685;53.104;8.228;2023-03-25T04:08:11;8.20;99.90
3344;DHT22;1685;53.104;8.228;2023-03-25T04:10:44;8.20;99.90
3344;DHT22;1685;53.104;8.228;2023-03-25T04:13:17;8.20;99.90
3344;DHT22;1685;53.104;8.228;2023-03-25T04:23:10;8.20;99.90
3344;DHT22;1685;53.104;8.228;2023-03-25T04:25:41;8.20;99.90
3344;DHT22;1685;53.104;8.228;2023-03-25T04:43:00;8.10;99.90
3344;DHT22;1685;53.104;8.228;2023-03-25T04:50:23;8.10;99.90
3344;DHT22;1685;53.104;8.228;2023-03-25T05:00:16;8.10;99.90
3344;DHT22;1685;53.104;8.228;2023-03-25T05:02:44;8.20;99.90
3344;DHT22;1685;53.104;8.228;2023-03-25T05:15:06;8.60;99.90
3344;DHT22;1685;53.104;8.228;2023-03-25T05:17:34;8.30;99.90
3344;DHT22;1685;53.104;8.228;2023-03-25T05:34:51;8.20;99.90
3344;DHT22;1685;53.104;8.228;2023-03-25T05:52:13;8.20;99.90
3344;DHT22;1685;53.104;8.228;2023-03-25T06:07:05;8.40;99.90
3344;DHT22;1685;53.104;8.228;2023-03-25T06:09:35;8.40;99.90
3344;DHT22;1685;53.104;8.228;2023-03-25T06:26:48;8.50;99.90
3344;DHT22;1685;53.104;8.228;2023-03-25T06:44:01;8.80;99.90
3344;DHT22;1685;53.104;8.228;2023-03-25T07:01:13;9.10;99.90
3344;DHT22;1685;53.104;8.228;2023-03-25T07:06:15;8.90;99.90
3344;DHT22;1685;53.104;8.228;2023-03-25T07:11:11;8.60;99.90
3344;DHT22;1685;53.104;8.228;2023-03-25T07:16:06;8.40;99.90
3344;DHT22;1685;53.104;8.228;2023-03-25T07:18:35;8.40;99.90
3344;DHT22;1685;53.104;8.228;2023-03-25T07:28:24;8.20;99.90
3344;DHT22;1685;53.104;8.228;2023-03-25T07:35:46;8.00;99.90
3344;DHT22;1685;53.104;8.228;2023-03-25T07:43:07;7.60;99.90
3344;DHT22;1685;53.104;8.228;2023-03-25T07:52:57;7.60;99.90
3344;DHT22;1685;53.104;8.228;2023-03-25T08:10:14;8.10;99.90
3344;DHT22;1685;53.104;8.228;2023-03-25T08:15:09;9.80;99.90
3344;DHT22;1685;53.104;8.228;2023-03-25T08:20:05;8.40;99.90
3344;DHT22;1685;53.104;8.228;2023-03-25T08:27:29;9.70;99.90
3344;DHT22;1685;53.104;8.228;2023-03-25T08:44:43;10.10;99.90
3344;DHT22;1685;53.104;8.228;2023-03-25T08:47:11;10.10;99.90
3344;DHT22;1685;53.104;8.228;2023-03-25T09:01:57;9.70;99.90
3344;DHT22;1685;53.104;8.228;2023-03-25T09:19:09;9.20;99.90
3344;DHT22;1685;53.104;8.228;2023-03-25T09:36:21;8.90;99.90
3344;DHT22;1685;53.104;8.228;2023-03-25T09:41:29;8.90;99.90
3344;DHT22;1685;53.104;8.228;2023-03-25T09:44:11;8.50;99.90
3344;DHT22;1685;53.104;8.228;2023-03-25T09:49:09;8.20;99.90
3344;DHT22;1685;53.104;8.228;2023-03-25T09:51:41;8.10;99.90
3344;DHT22;1685;53.104;8.228;2023-03-25T09:54:16;8.00;99.90
3344;DHT22;1685;53.104;8.228;2023-03-25T09:56:45;7.90;99.90
3344;DHT22;1685;53.104;8.228;2023-03-25T09:59:14;7.90;99.90
3344;DHT22;1685;53.104;8.228;2023-03-25T10:01:48;8.00;99.90
3344;DHT22;1685;53.104;8.228;2023-03-25T10:04:44;8.20;99.90
3344;DHT22;1685;53.104;8.228;2023-03-25T10:07:24;8.10;99.90
3344;DHT22;1685;53.104;8.228;2023-03-25T10:09:58;8.10;99.90
3344;DHT22;1685;53.104;8.228;2023-03-25T10:12:34;8.20;99.90
3344;DHT22;1685;53.104;8.228;2023-03-25T10:15:13;8.30;99.90
3344;DHT22;1685;53.104;8.228;2023-03-25T10:17:51;8.40;99.90
3344;DHT22;1685;53.104;8.228;2023-03-25T10:20:34;8.50;99.90
3344;DHT22;1685;53.104;8.228;2023-03-25T10:23:12;8.60;99.90
3344;DHT22;1685;53.104;8.228;2023-03-25T10:25:44;8.70;99.90
3344;DHT22;1685;53.104;8.228;2023-03-25T10:28:16;8.90;99.90
3344;DHT22;1685;53.104;8.228;2023-03-25T10:30:46;9.00;99.90
3344;DHT22;1685;53.104;8.228;2023-03-25T10:33:18;9.30;99.90
3344;DHT22;1685;53.104;8.228;2023-03-25T10:35:47;9.70;99.90
3344;DHT22;1685;53.104;8.228;2023-03-25T10:38:17;10.00;99.90
3344;DHT22;1685;53.104;8.228;2023-03-25T10:40:46;10.70;99.90
3344;DHT22;1685;53.104;8.228;2023-03-25T10:43:20;10.90;99.90
3344;DHT22;1685;53.104;8.228;2023-03-25T10:45:51;11.00;99.90
3344;DHT22;1685;53.104;8.228;2023-03-25T10:48:23;10.80;99.90
3344;DHT22;1685;53.104;8.228;2023-03-25T10:50:52;10.60;99.90
3344;DHT22;1685;53.104;8.228;2023-03-25T10:53:24;10.40;99.90
3344;DHT22;1685;53.104;8.228;2023-03-25T10:55:57;10.50;99.90
3344;DHT22;1685;53.104;8.228;2023-03-25T10:58:25;10.50;99.90
3344;DHT22;1685;53.104;8.228;2023-03-25T11:03:22;10.30;99.90
3344;DHT22;1685;53.104;8.228;2023-03-25T11:08:19;10.60;99.90
3344;DHT22;1685;53.104;8.228;2023-03-25T11:10:50;10.80;99.90
3344;DHT22;1685;53.104;8.228;2023-03-25T11:13:23;10.90;99.90
3344;DHT22;1685;53.104;8.228;2023-03-25T11:15:52;11.10;99.90
3344;DHT22;1685;53.104;8.228;2023-03-25T11:18:23;11.10;99.90
3344;DHT22;1685;53.104;8.228;2023-03-25T11:20:52;11.30;99.90
3344;DHT22;1685;53.104;8.228;2023-03-25T11:23:23;11.40;99.90
3344;DHT22;1685;53.104;8.228;2023-03-25T11:25:53;11.20;99.90
3344;DHT22;1685;53.104;8.228;2023-03-25T11:28:25;11.00;99.90
3344;DHT22;1685;53.104;8.228;2023-03-25T11:31:11;10.60;99.90
3344;DHT22;1685;53.104;8.228;2023-03-25T11:33:40;10.30;99.90
3344;DHT22;1685;53.104;8.228;2023-03-25T11:36:16;9.90;99.90
3344;DHT22;1685;53.104;8.228;2023-03-25T11:38:51;9.80;99.90
3344;DHT22;1685;53.104;8.228;2023-03-25T11:41:20;10.10;99.90
3344;DHT22;1685;53.104;8.228;2023-03-25T11:43:47;10.50;99.90
3344;DHT22;1685;53.104;8.228;2023-03-25T11:46:16;10.60;99.90
3344;DHT22;1685;53.104;8.228;2023-03-25T11:48:45;10.70;99.90
3344;DHT22;1685;53.104;8.228;2023-03-25T11:51:13;10.70;99.90
3344;DHT22;1685;53.104;8.228;2023-03-25T11:53:43;10.70;99.90
3344;DHT22;1685;53.104;8.228;2023-03-25T11:56:15;10.70;99.90
3344;DHT22;1685;53.104;8.228;2023-03-25T11:58:46;10.70;99.90
3344;DHT22;1685;53.104;8.228;2023-03-25T12:01:21;10.80;99.90
3344;DHT22;1685;53.104;8.228;2023-03-25T12:03:50;10.70;99.90
3344;DHT22;1685;53.104;8.228;2023-03-25T12:06:19;10.90;99.90
3344;DHT22;1685;53.104;8.228;2023-03-25T12:08:49;11.00;99.90
3344;DHT22;1685;53.104;8.228;2023-03-25T12:11:19;11.00;99.90
3344;DHT22;1685;53.104;8.228;2023-03-25T12:14:11;10.80;99.90
3344;DHT22;1685;53.104;8.228;2023-03-25T12:16:49;10.90;99.90
3344;DHT22;1685;53.104;8.228;2023-03-25T12:19:23;10.90;99.90
3344;DHT22;1685;53.104;8.228;2023-03-25T12:22:04;10.90;99.90
3344;DHT22;1685;53.104;8.228;2023-03-25T12:24:47;11.10;99.90
3344;DHT22;1685;53.104;8.228;2023-03-25T12:27:28;11.30;99.90
3344;DHT22;1685;53.104;8.228;2023-03-25T12:30:04;11.50;99.90
3344;DHT22;1685;53.104;8.228;2023-03-25T12:32:40;11.60;99.90
3344;DHT22;1685;53.104;8.228;2023-03-25T12:35:21;11.40;99.90
3344;DHT22;1685;53.104;8.228;2023-03-25T12:38:03;11.10;99.90
3344;DHT22;1685;53.104;8.228;2023-03-25T12:40:45;10.90;99.90
3344;DHT22;1685;53.104;8.228;2023-03-25T12:43:19;10.90;99.90
3344;DHT22;1685;53.104;8.228;2023-03-25T12:45:57;11.00;99.90
3344;DHT22;1685;53.104;8.228;2023-03-25T12:48:40;11.00;99.90
3344;DHT22;1685;53.104;8.228;2023-03-25T12:51:18;10.90;99.90
3344;DHT22;1685;53.104;8.228;2023-03-25T12:53:57;10.80;99.90
3344;DHT22;1685;53.104;8.228;2023-03-25T12:56:43;10.90;99.90
3344;DHT22;1685;53.104;8.228;2023-03-25T12:59:26;10.80;99.90
3344;DHT22;1685;53.104;8.228;2023-03-25T13:02:04;10.90;99.90
3344;DHT22;1685;53.104;8.228;2023-03-25T13:04:46;11.00;99.90
3344;DHT22;1685;53.104;8.228;2023-03-25T13:07:19;11.30;99.90
3344;DHT22;1685;53.104;8.228;2023-03-25T13:09:53;11.30;99.90
3344;DHT22;1685;53.104;8.228;2023-03-25T13:12:29;11.40;99.90
3344;DHT22;1685;53.104;8.228;2023-03-25T13:15:03;11.50;99.90
3344;DHT22;1685;53.104;8.228;2023-03-25T13:17:37;11.60;99.90
3344;DHT22;1685;53.104;8.228;2023-03-25T13:20:08;11.80;99.90
3344;DHT22;1685;53.104;8.228;2023-03-25T13:22:39;11.90;99.90
3344;DHT22;1685;53.104;8.228;2023-03-25T13:25:18;11.80;99.90
3344;DHT22;1685;53.104;8.228;2023-03-25T13:27:46;11.60;99.90
3344;DHT22;1685;53.104;8.228;2023-03-25T13:30:20;11.20;99.90
3344;DHT22;1685;53.104;8.228;2023-03-25T13:32:52;10.90;99.90
3344;DHT22;1685;53.104;8.228;2023-03-25T13:35:26;10.60;99.90
3344;DHT22;1685;53.104;8.228;2023-03-25T13:38:00;10.50;99.90
3344;DHT22;1685;53.104;8.228;2023-03-25T13:40:34;10.50;99.90
3344;DHT22;1685;53.104;8.228;2023-03-25T13:43:05;10.40;99.90
3344;DHT22;1685;53.104;8.228;2023-03-25T13:45:40;10.50;99.90
3344;DHT22;1685;53.104;8.228;2023-03-25T13:48:14;10.60;99.90
3344;DHT22;1685;53.104;8.228;2023-03-25T13:53:16;10.40;99.90
3344;DHT22;1685;53.104;8.228;2023-03-25T13:55:49;10.40;99.90
3344;DHT22;1685;53.104;8.228;2023-03-25T13:58:45;10.60;99.90
3344;DHT22;1685;53.104;8.228;2023-03-25T14:01:42;10.70;99.90
3344;DHT22;1685;53.104;8.228;2023-03-25T14:04:38;10.80;99.90
3344;DHT22;1685;53.104;8.228;2023-03-25T14:07:36;10.60;99.90
3344;DHT22;1685;53.104;8.228;2023-03-25T14:13:10;10.30;99.90
3344;DHT22;1685;53.104;8.228;2023-03-25T14:15:40;10.30;99.90
3344;DHT22;1685;53.104;8.228;2023-03-25T14:18:15;10.30;99.90
3344;DHT22;1685;53.104;8.228;2023-03-25T14:20:44;10.30;99.90
3344;DHT22;1685;53.104;8.228;2023-03-25T14:23:14;10.30;99.90
3344;DHT22;1685;53.104;8.228;2023-03-25T14:25:45;10.40;99.90
3344;DHT22;1685;53.104;8.228;2023-03-25T14:28:17;10.50;99.90
3344;DHT22;1685;53.104;8.228;2023-03-25T14:31:23;10.80;99.90
3344;DHT22;1685;53.104;8.228;2023-03-25T14:34:21;11.00;99.90
3344;DHT22;1685;53.104;8.228;2023-03-25T14:37:09;11.30;99.90
3344;DHT22;1685;53.104;8.228;2023-03-25T14:39:37;11.20;99.90
3344;DHT22;1685;53.104;8.228;2023-03-25T14:42:11;11.20;99.90
3344;DHT22;1685;53.104;8.228;2023-03-25T14:44:50;11.20;99.90
3344;DHT22;1685;53.104;8.228;2023-03-25T14:47:27;11.10;99.90
3344;DHT22;1685;53.104;8.228;2023-03-25T14:50:01;11.10;99.90
3344;DHT22;1685;53.104;8.228;2023-03-25T14:52:35;11.00;99.90
3344;DHT22;1685;53.104;8.228;2023-03-25T14:55:06;11.10;99.90
3344;DHT22;1685;53.104;8.228;2023-03-25T14:57:39;11.20;99.90
3344;DHT22;1685;53.104;8.228;2023-03-25T15:00:09;11.10;99.90
3344;DHT22;1685;53.104;8.228;2023-03-25T15:02:39;11.20;99.90
3344;DHT22;1685;53.104;8.228;2023-03-25T15:05:15;11.20;99.90
3344;DHT22;1685;53.104;8.228;2023-03-25T15:07:46;11.10;99.90
3344;DHT22;1685;53.104;8.228;2023-03-25T15:10:21;11.20;99.90
3344;DHT22;1685;53.104;8.228;2023-03-25T15:12:52;11.00;99.90
3344;DHT22;1685;53.104;8.228;2023-03-25T15:15:29;10.80;99.90
3344;DHT22;1685;53.104;8.228;2023-03-25T15:20:31;11.00;99.90
3344;DHT22;1685;53.104;8.228;2023-03-25T15:23:32;11.00;99.90
3344;DHT22;1685;53.104;8.228;2023-03-25T15:26:01;11.00;99.90
3344;DHT22;1685;53.104;8.228;2023-03-25T15:28:43;10.90;99.90
3344;DHT22;1685;53.104;8.228;2023-03-25T15:31:39;10.90;99.90
3344;DHT22;1685;53.104;8.228;2023-03-25T15:34:24;10.60;99.90
3344;DHT22;1685;53.104;8.228;2023-03-25T15:37:30;10.60;99.90
3344;DHT22;1685;53.104;8.228;2023-03-25T15:40:12;10.30;99.90
3344;DHT22;1685;53.104;8.228;2023-03-25T15:43:00;9.70;99.90
3344;DHT22;1685;53.104;8.228;2023-03-25T15:48:49;8.80;99.90
3344;DHT22;1685;53.104;8.228;2023-03-25T15:51:36;8.40;99.90
3344;DHT22;1685;53.104;8.228;2023-03-25T15:54:28;8.30;99.90
3344;DHT22;1685;53.104;8.228;2023-03-25T15:57:00;8.10;99.90
3344;DHT22;1685;53.104;8.228;2023-03-25T15:59:34;8.10;99.90
3344;DHT22;1685;53.104;8.228;2023-03-25T16:02:05;8.10;99.90
3344;DHT22;1685;53.104;8.228;2023-03-25T16:04:40;8.20;99.90
3344;DHT22;1685;53.104;8.228;2023-03-25T16:07:12;8.20;99.90
3344;DHT22;1685;53.104;8.228;2023-03-25T16:09:44;8.30;99.90
3344;DHT22;1685;53.104;8.228;2023-03-25T16:12:18;8.30;99.90
3344;DHT22;1685;53.104;8.228;2023-03-25T16:19:43;8.50;99.90
3344;DHT22;1685;53.104;8.228;2023-03-25T16:22:17;8.50;99.90
3344;DHT22;1685;53.104;8.228;2023-03-25T16:24:47;8.50;99.90
3344;DHT22;1685;53.104;8.228;2023-03-25T16:27:22;8.50;99.90
3344;DHT22;1685;53.104;8.228;2023-03-25T16:29:51;8.50;99.90
3344;DHT22;1685;53.104;8.228;2023-03-25T16:32:19;8.60;99.90
3344;DHT22;1685;53.104;8.228;2023-03-25T16:37:14;8.50;99.90
3344;DHT22;1685;53.104;8.228;2023-03-25T16:42:17;8.60;99.90
3344;DHT22;1685;53.104;8.228;2023-03-25T16:44:46;8.60;99.90
3344;DHT22;1685;53.104;8.228;2023-03-25T16:47:14;4.50;99.90
3344;DHT22;1685;53.104;8.228;2023-03-25T16:49:46;8.50;99.90
3344;DHT22;1685;53.104;8.228;2023-03-25T16:52:15;8.50;99.90
3344;DHT22;1685;53.104;8.228;2023-03-25T16:54:45;8.50;99.90
3344;DHT22;1685;53.104;8.228;2023-03-25T16:57:16;8.50;99.90
3344;DHT22;1685;53.104;8.228;2023-03-25T16:59:46;8.50;99.90
3344;DHT22;1685;53.104;8.228;2023-03-25T17:02:24;8.50;99.90
3344;DHT22;1685;53.104;8.228;2023-03-25T17:07:23;8.60;99.90
3344;DHT22;1685;53.104;8.228;2023-03-25T17:09:53;8.60;99.90
3344;DHT22;1685;53.104;8.228;2023-03-25T17:12:21;8.60;99.90
3344;DHT22;1685;53.104;8.228;2023-03-25T17:14:53;8.60;99.90
3344;DHT22;1685;53.104;8.228;2023-03-25T17:17:31;8.60;99.90
3344;DHT22;1685;53.104;8.228;2023-03-25T17:20:01;8.50;99.90
3344;DHT22;1685;53.104;8.228;2023-03-25T17:22:34;8.40;99.90
3344;DHT22;1685;53.104;8.228;2023-03-25T17:25:15;8.40;99.90
3344;DHT22;1685;53.104;8.228;2023-03-25T17:27:53;8.50;99.90
3344;DHT22;1685;53.104;8.228;2023-03-25T17:30:36;8.50;99.90
3344;DHT22;1685;53.104;8.228;2023-03-25T17:33:11;8.50;99.90
3344;DHT22;1685;53.104;8.228;2023-03-25T17:45:29;8.40;99.90
3344;DHT22;1685;53.104;8.228;2023-03-25T17:50:24;8.30;99.90
3344;DHT22;1685;53.104;8.228;2023-03-25T18:00:16;8.40;99.90
3344;DHT22;1685;53.104;8.228;2023-03-25T18:02:45;8.40;99.90
3344;DHT22;1685;53.104;8.228;2023-03-25T18:10:13;8.50;99.90
3344;DHT22;1685;53.104;8.228;2023-03-25T18:15:10;8.40;99.90
3344;DHT22;1685;53.104;8.228;2023-03-25T18:20:13;8.40;99.90
3344;DHT22;1685;53.104;8.228;2023-03-25T18:30:14;8.40;99.90
3344;DHT22;1685;53.104;8.228;2023-03-25T18:35:11;8.30;99.90
3344;DHT22;1685;53.104;8.228;2023-03-25T18:40:14;8.30;99.90
3344;DHT22;1685;53.104;8.228;2023-03-25T18:45:09;8.40;99.90
3344;DHT22;1685;53.104;8.228;2023-03-25T18:50:16;8.20;99.90
3344;DHT22;1685;53.104;8.228;2023-03-25T19:00:13;8.10;99.90
3344;DHT22;1685;53.104;8.228;2023-03-25T19:05:12;8.10;99.90
3344;DHT22;1685;53.104;8.228;2023-03-25T19:10:09;8.00;99.90
3344;DHT22;1685;53.104;8.228;2023-03-25T19:22:28;8.10;99.90
3344;DHT22;1685;53.104;8.228;2023-03-25T19:39:41;8.10;99.90
3344;DHT22;1685;53.104;8.228;2023-03-25T19:56:52;8.20;99.90
3344;DHT22;1685;53.104;8.228;2023-03-25T20:14:06;8.00;99.90
3344;DHT22;1685;53.104;8.228;2023-03-25T20:31:21;8.00;99.90
3344;DHT22;1685;53.104;8.228;2023-03-25T20:33:48;8.00;99.90
3344;DHT22;1685;53.104;8.228;2023-03-25T20:48:36;7.90;99.90
3344;DHT22;1685;53.104;8.228;2023-03-25T20:51:04;7.90;99.90
3344;DHT22;1685;53.104;8.228;2023-03-25T20:55:59;7.80;99.90
3344;DHT22;1685;53.104;8.228;2023-03-25T20:58:27;7.80;99.90
3344;DHT22;1685;53.104;8.228;2023-03-25T21:00:55;7.80;99.90
3344;DHT22;1685;53.104;8.228;2023-03-25T21:05:56;7.80;99.90
3344;DHT22;1685;53.104;8.228;2023-03-25T21:10:55;7.70;99.90
3344;DHT22;1685;53.104;8.228;2023-03-25T21:15:52;7.80;99.90
3344;DHT22;1685;53.104;8.228;2023-03-25T21:23:16;7.80;99.90
3344;DHT22;1685;53.104;8.228;2023-03-25T21:33:06;7.90;99.90
3344;DHT22;1685;53.104;8.228;2023-03-25T21:40:33;7.80;99.90
3344;DHT22;1685;53.104;8.228;2023-03-25T21:47:59;7.70;99.90
3344;DHT22;1685;53.104;8.228;2023-03-25T21:50:27;7.80;99.90
3344;DHT22;1685;53.104;8.228;2023-03-25T21:57:59;7.80;99.90
3344;DHT22;1685;53.104;8.228;2023-03-25T22:15:18;7.70;99.90
3344;DHT22;1685;53.104;8.228;2023-03-25T22:25:08;7.60;99.90
3344;DHT22;1685;53.104;8.228;2023-03-25T22:27:35;7.50;99.90
3344;DHT22;1685;53.104;8.228;2023-03-25T22:30:04;7.50;99.90
3344;DHT22;1685;53.104;8.228;2023-03-25T22:32:33;7.50;99.90
3344;DHT22;1685;53.104;8.228;2023-03-25T22:49:46;7.70;99.90
3344;DHT22;1685;53.104;8.228;2023-03-25T23:07:00;7.60;99.90
3344;DHT22;1685;53.104;8.228;2023-03-25T23:09:30;7.60;99.90
3344;DHT22;1685;53.104;8.228;2023-03-25T23:24:25;7.60;99.90
3344;DHT22;1685;53.104;8.228;2023-03-25T23:34:16;7.60;99.90
3344;DHT22;1685;53.104;8.228;2023-03-25T23:41:41;7.60;99.90
3344;DHT22;1685;53.104;8.228;2023-03-25T23:51:32;7.50;99.90
3344;DHT22;1685;53.104;8.228;2023-03-25T23:58:57;7.50;99.90
